sensor_id;sensor_type;location;lat;lon;timestamp;pressure;altitude;pressure_sealevel;temperature;humidity
53916;BME280;39827;49.652;18.770;2022-12-07T00:01:29;95964.72;;;0.74;100.00
53916;BME280;39827;49.652;18.770;2022-12-07T00:03:57;95957.69;;;0.74;100.00
53916;BME280;39827;49.652;18.770;2022-12-07T00:06:26;95961.25;;;0.87;100.00
53916;BME280;39827;49.652;18.770;2022-12-07T00:08:51;95960.06;;;0.83;100.00
53916;BME280;39827;49.652;18.770;2022-12-07T00:11:22;95953.41;;;0.94;100.00
53916;BME280;39827;49.652;18.770;2022-12-07T00:13:51;95953.22;;;0.88;100.00
53916;BME280;39827;49.652;18.770;2022-12-07T00:16:18;95947.00;;;0.89;100.00
53916;BME280;39827;49.652;18.770;2022-12-07T00:18:44;95955.41;;;0.91;100.00
53916;BME280;39827;49.652;18.770;2022-12-07T00:21:22;95946.81;;;0.91;100.00
53916;BME280;39827;49.652;18.770;2022-12-07T00:23:48;95943.56;;;0.96;100.00
53916;BME280;39827;49.652;18.770;2022-12-07T00:26:20;95944.13;;;1.04;100.00
53916;BME280;39827;49.652;18.770;2022-12-07T00:29:09;95945.47;;;1.14;100.00
53916;BME280;39827;49.652;18.770;2022-12-07T00:31:35;95937.19;;;0.85;100.00
53916;BME280;39827;49.652;18.770;2022-12-07T00:34:04;95940.44;;;0.80;100.00
53916;BME280;39827;49.652;18.770;2022-12-07T00:36:30;95944.59;;;0.88;100.00
53916;BME280;39827;49.652;18.770;2022-12-07T00:38:58;95936.09;;;1.06;100.00
53916;BME280;39827;49.652;18.770;2022-12-07T00:41:25;95941.53;;;0.98;100.00
53916;BME280;39827;49.652;18.770;2022-12-07T00:43:51;95944.34;;;0.96;100.00
53916;BME280;39827;49.652;18.770;2022-12-07T00:46:18;95939.34;;;0.95;100.00
53916;BME280;39827;49.652;18.770;2022-12-07T00:48:44;95937.16;;;0.98;100.00
53916;BME280;39827;49.652;18.770;2022-12-07T00:51:11;95942.00;;;0.88;100.00
53916;BME280;39827;49.652;18.770;2022-12-07T00:53:37;95939.75;;;0.98;100.00
53916;BME280;39827;49.652;18.770;2022-12-07T00:56:07;95940.91;;;1.02;100.00
53916;BME280;39827;49.652;18.770;2022-12-07T00:58:32;95938.03;;;1.11;100.00
53916;BME280;39827;49.652;18.770;2022-12-07T01:01:00;95930.66;;;1.08;100.00
53916;BME280;39827;49.652;18.770;2022-12-07T01:03:26;95945.22;;;1.22;100.00
53916;BME280;39827;49.652;18.770;2022-12-07T01:05:53;95937.59;;;1.21;100.00
53916;BME280;39827;49.652;18.770;2022-12-07T01:08:19;95937.28;;;1.10;100.00
53916;BME280;39827;49.652;18.770;2022-12-07T01:10:45;95948.88;;;1.14;100.00
53916;BME280;39827;49.652;18.770;2022-12-07T01:13:10;95937.78;;;1.19;100.00
53916;BME280;39827;49.652;18.770;2022-12-07T01:15:42;95932.00;;;1.17;100.00
53916;BME280;39827;49.652;18.770;2022-12-07T01:18:08;95941.34;;;0.99;100.00
53916;BME280;39827;49.652;18.770;2022-12-07T01:20:33;95925.69;;;0.99;100.00
53916;BME280;39827;49.652;18.770;2022-12-07T01:22:59;95937.44;;;1.15;100.00
53916;BME280;39827;49.652;18.770;2022-12-07T01:25:24;95929.50;;;1.03;100.00
53916;BME280;39827;49.652;18.770;2022-12-07T01:27:49;95927.28;;;1.00;100.00
53916;BME280;39827;49.652;18.770;2022-12-07T01:30:15;95934.91;;;1.02;100.00
53916;BME280;39827;49.652;18.770;2022-12-07T01:32:40;95935.28;;;1.06;100.00
53916;BME280;39827;49.652;18.770;2022-12-07T01:35:06;95930.91;;;0.99;100.00
53916;BME280;39827;49.652;18.770;2022-12-07T01:37:36;95915.06;;;1.01;100.00
53916;BME280;39827;49.652;18.770;2022-12-07T01:40:02;95919.22;;;1.09;100.00
53916;BME280;39827;49.652;18.770;2022-12-07T01:42:28;95926.06;;;1.03;100.00
53916;BME280;39827;49.652;18.770;2022-12-07T01:47:51;95920.84;;;1.03;100.00
53916;BME280;39827;49.652;18.770;2022-12-07T01:50:19;95923.66;;;1.01;100.00
53916;BME280;39827;49.652;18.770;2022-12-07T01:52:47;95925.25;;;1.02;100.00
53916;BME280;39827;49.652;18.770;2022-12-07T01:55:15;95914.00;;;1.09;100.00
53916;BME280;39827;49.652;18.770;2022-12-07T01:57:44;95917.88;;;0.99;100.00
53916;BME280;39827;49.652;18.770;2022-12-07T02:00:11;95920.44;;;1.06;100.00
53916;BME280;39827;49.652;18.770;2022-12-07T02:02:40;95905.47;;;0.95;100.00
53916;BME280;39827;49.652;18.770;2022-12-07T02:05:07;95915.47;;;0.98;100.00
53916;BME280;39827;49.652;18.770;2022-12-07T02:07:34;95910.22;;;1.04;100.00
53916;BME280;39827;49.652;18.770;2022-12-07T02:10:22;95918.91;;;0.98;100.00
53916;BME280;39827;49.652;18.770;2022-12-07T02:13:08;95916.63;;;1.09;100.00
53916;BME280;39827;49.652;18.770;2022-12-07T02:15:51;95922.19;;;1.12;100.00
53916;BME280;39827;49.652;18.770;2022-12-07T02:23:51;95921.78;;;1.15;100.00
53916;BME280;39827;49.652;18.770;2022-12-07T02:29:13;95921.63;;;1.10;100.00
53916;BME280;39827;49.652;18.770;2022-12-07T02:31:46;95921.63;;;1.10;100.00
53916;BME280;39827;49.652;18.770;2022-12-07T02:34:26;95917.22;;;1.04;100.00
53916;BME280;39827;49.652;18.770;2022-12-07T02:36:56;95916.63;;;1.09;100.00
53916;BME280;39827;49.652;18.770;2022-12-07T02:39:40;95909.22;;;1.06;100.00
53916;BME280;39827;49.652;18.770;2022-12-07T02:42:15;95911.34;;;1.15;100.00
53916;BME280;39827;49.652;18.770;2022-12-07T02:44:43;95909.72;;;1.21;100.00
53916;BME280;39827;49.652;18.770;2022-12-07T02:47:11;95913.50;;;1.25;100.00
53916;BME280;39827;49.652;18.770;2022-12-07T02:49:39;95913.50;;;1.25;100.00
53916;BME280;39827;49.652;18.770;2022-12-07T02:52:05;95913.19;;;1.08;100.00
53916;BME280;39827;49.652;18.770;2022-12-07T02:54:30;95913.00;;;1.10;100.00
53916;BME280;39827;49.652;18.770;2022-12-07T03:00:04;95903.50;;;0.90;100.00
53916;BME280;39827;49.652;18.770;2022-12-07T03:02:46;95909.97;;;1.13;100.00
53916;BME280;39827;49.652;18.770;2022-12-07T03:18:10;95894.75;;;1.10;100.00
53916;BME280;39827;49.652;18.770;2022-12-07T03:20:39;95900.81;;;1.29;100.00
53916;BME280;39827;49.652;18.770;2022-12-07T03:23:07;95894.78;;;1.28;100.00
53916;BME280;39827;49.652;18.770;2022-12-07T03:25:35;95895.56;;;1.10;100.00
53916;BME280;39827;49.652;18.770;2022-12-07T03:28:05;95899.06;;;1.23;100.00
53916;BME280;39827;49.652;18.770;2022-12-07T03:30:57;95898.97;;;1.36;100.00
53916;BME280;39827;49.652;18.770;2022-12-07T03:33:33;95904.41;;;1.35;100.00
53916;BME280;39827;49.652;18.770;2022-12-07T03:36:11;95890.59;;;1.27;100.00
53916;BME280;39827;49.652;18.770;2022-12-07T03:41:35;95893.81;;;1.29;100.00
53916;BME280;39827;49.652;18.770;2022-12-07T03:44:02;95894.16;;;1.33;100.00
53916;BME280;39827;49.652;18.770;2022-12-07T03:46:45;95898.09;;;1.17;100.00
53916;BME280;39827;49.652;18.770;2022-12-07T03:51:54;95895.41;;;1.30;100.00
53916;BME280;39827;49.652;18.770;2022-12-07T03:54:26;95893.97;;;1.35;100.00
53916;BME280;39827;49.652;18.770;2022-12-07T03:56:55;95889.50;;;1.42;100.00
53916;BME280;39827;49.652;18.770;2022-12-07T03:59:22;95886.50;;;1.38;100.00
53916;BME280;39827;49.652;18.770;2022-12-07T04:01:57;95888.59;;;1.29;100.00
53916;BME280;39827;49.652;18.770;2022-12-07T04:04:26;95881.59;;;1.23;100.00
53916;BME280;39827;49.652;18.770;2022-12-07T04:06:51;95887.84;;;1.22;100.00
53916;BME280;39827;49.652;18.770;2022-12-07T04:09:17;95890.66;;;1.21;100.00
53916;BME280;39827;49.652;18.770;2022-12-07T04:11:42;95892.25;;;1.22;100.00
53916;BME280;39827;49.652;18.770;2022-12-07T04:14:08;95882.72;;;1.34;100.00
53916;BME280;39827;49.652;18.770;2022-12-07T04:16:53;95892.47;;;1.46;100.00
53916;BME280;39827;49.652;18.770;2022-12-07T04:19:23;95894.59;;;1.30;100.00
53916;BME280;39827;49.652;18.770;2022-12-07T04:21:49;95890.41;;;1.29;100.00
53916;BME280;39827;49.652;18.770;2022-12-07T04:24:15;95872.03;;;1.17;100.00
53916;BME280;39827;49.652;18.770;2022-12-07T04:26:41;95879.97;;;1.29;100.00
53916;BME280;39827;49.652;18.770;2022-12-07T04:29:08;95889.16;;;1.32;100.00
53916;BME280;39827;49.652;18.770;2022-12-07T04:31:34;95889.59;;;1.28;100.00
53916;BME280;39827;49.652;18.770;2022-12-07T04:33:59;95891.31;;;1.16;100.00
53916;BME280;39827;49.652;18.770;2022-12-07T04:36:24;95894.06;;;1.21;100.00
53916;BME280;39827;49.652;18.770;2022-12-07T04:38:53;95898.25;;;1.22;100.00
53916;BME280;39827;49.652;18.770;2022-12-07T04:41:18;95889.44;;;1.23;100.00
53916;BME280;39827;49.652;18.770;2022-12-07T04:43:44;95902.56;;;1.35;100.00
53916;BME280;39827;49.652;18.770;2022-12-07T04:46:09;95897.00;;;1.32;100.00
53916;BME280;39827;49.652;18.770;2022-12-07T04:48:34;95896.03;;;1.26;100.00
53916;BME280;39827;49.652;18.770;2022-12-07T04:51:00;95904.88;;;1.25;100.00
53916;BME280;39827;49.652;18.770;2022-12-07T04:53:25;95900.41;;;1.32;100.00
53916;BME280;39827;49.652;18.770;2022-12-07T04:55:50;95909.78;;;1.40;100.00
53916;BME280;39827;49.652;18.770;2022-12-07T04:58:15;95903.13;;;1.44;100.00
53916;BME280;39827;49.652;18.770;2022-12-07T05:00:41;95906.13;;;1.41;100.00
53916;BME280;39827;49.652;18.770;2022-12-07T05:03:06;95893.00;;;1.29;100.00
53916;BME280;39827;49.652;18.770;2022-12-07T05:05:32;95891.97;;;1.30;100.00
53916;BME280;39827;49.652;18.770;2022-12-07T05:07:57;95895.03;;;1.27;100.00
53916;BME280;39827;49.652;18.770;2022-12-07T05:10:22;95897.84;;;1.25;100.00
53916;BME280;39827;49.652;18.770;2022-12-07T05:12:48;95895.88;;;1.21;100.00
53916;BME280;39827;49.652;18.770;2022-12-07T05:15:14;95893.53;;;1.12;100.00
53916;BME280;39827;49.652;18.770;2022-12-07T05:17:40;95901.84;;;1.28;100.00
53916;BME280;39827;49.652;18.770;2022-12-07T05:20:06;95894.66;;;1.23;100.00
53916;BME280;39827;49.652;18.770;2022-12-07T05:22:31;95899.03;;;1.29;100.00
53916;BME280;39827;49.652;18.770;2022-12-07T05:24:57;95905.84;;;1.30;100.00
53916;BME280;39827;49.652;18.770;2022-12-07T05:27:22;95893.06;;;1.22;100.00
53916;BME280;39827;49.652;18.770;2022-12-07T05:29:49;95896.63;;;1.28;100.00
53916;BME280;39827;49.652;18.770;2022-12-07T05:32:15;95897.66;;;1.27;100.00
53916;BME280;39827;49.652;18.770;2022-12-07T05:34:40;95904.59;;;1.33;100.00
53916;BME280;39827;49.652;18.770;2022-12-07T05:37:06;95902.41;;;1.30;100.00
53916;BME280;39827;49.652;18.770;2022-12-07T05:39:31;95907.25;;;1.26;100.00
53916;BME280;39827;49.652;18.770;2022-12-07T05:41:56;95903.22;;;1.30;100.00
53916;BME280;39827;49.652;18.770;2022-12-07T05:44:37;95911.09;;;1.24;100.00
53916;BME280;39827;49.652;18.770;2022-12-07T05:47:02;95907.72;;;1.16;100.00
53916;BME280;39827;49.652;18.770;2022-12-07T05:49:28;95909.22;;;1.06;100.00
53916;BME280;39827;49.652;18.770;2022-12-07T05:51:53;95903.75;;;1.14;100.00
53916;BME280;39827;49.652;18.770;2022-12-07T05:54:18;95900.31;;;1.13;100.00
53916;BME280;39827;49.652;18.770;2022-12-07T05:56:44;95906.56;;;1.12;100.00
53916;BME280;39827;49.652;18.770;2022-12-07T05:59:09;95909.28;;;1.24;100.00
53916;BME280;39827;49.652;18.770;2022-12-07T06:01:57;95915.84;;;1.34;100.00
53916;BME280;39827;49.652;18.770;2022-12-07T06:04:24;95901.44;;;1.24;100.00
53916;BME280;39827;49.652;18.770;2022-12-07T06:06:50;95916.53;;;1.22;100.00
53916;BME280;39827;49.652;18.770;2022-12-07T06:09:17;95918.56;;;1.20;100.00
53916;BME280;39827;49.652;18.770;2022-12-07T06:11:43;95915.50;;;1.23;100.00
53916;BME280;39827;49.652;18.770;2022-12-07T06:14:27;95919.69;;;1.31;100.00
53916;BME280;39827;49.652;18.770;2022-12-07T06:16:53;95911.81;;;1.38;100.00
53916;BME280;39827;49.652;18.770;2022-12-07T06:19:18;95915.78;;;1.40;100.00
53916;BME280;39827;49.652;18.770;2022-12-07T06:21:43;95917.81;;;1.38;100.00
53916;BME280;39827;49.652;18.770;2022-12-07T06:24:12;95915.13;;;1.45;100.00
53916;BME280;39827;49.652;18.770;2022-12-07T06:26:38;95922.66;;;1.35;100.00
53916;BME280;39827;49.652;18.770;2022-12-07T06:29:03;95916.56;;;1.41;100.00
53916;BME280;39827;49.652;18.770;2022-12-07T06:31:28;95917.66;;;1.33;100.00
53916;BME280;39827;49.652;18.770;2022-12-07T06:34:02;95919.03;;;1.36;100.00
53916;BME280;39827;49.652;18.770;2022-12-07T06:36:28;95916.06;;;1.32;100.00
53916;BME280;39827;49.652;18.770;2022-12-07T06:38:54;95919.94;;;1.23;100.00
53916;BME280;39827;49.652;18.770;2022-12-07T06:41:20;95924.28;;;1.29;100.00
53916;BME280;39827;49.652;18.770;2022-12-07T06:43:46;95926.44;;;1.39;100.00
53916;BME280;39827;49.652;18.770;2022-12-07T06:46:12;95922.66;;;1.35;100.00
53916;BME280;39827;49.652;18.770;2022-12-07T06:48:38;95929.50;;;1.29;100.00
53916;BME280;39827;49.652;18.770;2022-12-07T06:51:03;95926.75;;;1.24;100.00
53916;BME280;39827;49.652;18.770;2022-12-07T06:53:29;95931.91;;;1.30;100.00
53916;BME280;39827;49.652;18.770;2022-12-07T06:55:54;95938.78;;;1.25;100.00
53916;BME280;39827;49.652;18.770;2022-12-07T06:58:19;95941.53;;;1.30;100.00
53916;BME280;39827;49.652;18.770;2022-12-07T07:00:45;95943.88;;;1.38;100.00
53916;BME280;39827;49.652;18.770;2022-12-07T07:03:12;95938.09;;;1.36;100.00
53916;BME280;39827;49.652;18.770;2022-12-07T07:05:38;95940.88;;;1.41;100.00
53916;BME280;39827;49.652;18.770;2022-12-07T07:08:03;95946.09;;;1.41;100.00
53916;BME280;39827;49.652;18.770;2022-12-07T07:10:30;95945.44;;;1.46;100.00
53916;BME280;39827;49.652;18.770;2022-12-07T07:12:55;95956.72;;;1.40;100.00
53916;BME280;39827;49.652;18.770;2022-12-07T07:15:20;95956.81;;;1.26;100.00
53916;BME280;39827;49.652;18.770;2022-12-07T07:17:46;95959.44;;;1.52;100.00
53916;BME280;39827;49.652;18.770;2022-12-07T07:20:12;95960.81;;;1.29;100.00
53916;BME280;39827;49.652;18.770;2022-12-07T07:22:37;95964.53;;;1.40;100.00
53916;BME280;39827;49.652;18.770;2022-12-07T07:25:03;95960.75;;;1.36;100.00
53916;BME280;39827;49.652;18.770;2022-12-07T07:27:28;95960.66;;;1.24;100.00
53916;BME280;39827;49.652;18.770;2022-12-07T07:29:54;95964.97;;;1.04;100.00
53916;BME280;39827;49.652;18.770;2022-12-07T07:32:19;95963.34;;;1.10;100.00
53916;BME280;39827;49.652;18.770;2022-12-07T07:34:46;95964.03;;;0.92;100.00
53916;BME280;39827;49.652;18.770;2022-12-07T07:37:12;95970.91;;;1.19;100.00
53916;BME280;39827;49.652;18.770;2022-12-07T07:39:38;95960.53;;;1.12;100.00
53916;BME280;39827;49.652;18.770;2022-12-07T07:42:04;95957.31;;;1.10;100.00
53916;BME280;39827;49.652;18.770;2022-12-07T07:44:29;95960.91;;;1.15;100.00
53916;BME280;39827;49.652;18.770;2022-12-07T07:46:55;95963.06;;;1.25;100.00
53916;BME280;39827;49.652;18.770;2022-12-07T07:49:20;95960.91;;;1.15;100.00
53916;BME280;39827;49.652;18.770;2022-12-07T07:51:45;95958.81;;;1.24;100.00
53916;BME280;39827;49.652;18.770;2022-12-07T07:54:11;95963.78;;;1.33;100.00
53916;BME280;39827;49.652;18.770;2022-12-07T07:56:36;95969.69;;;1.21;100.00
53916;BME280;39827;49.652;18.770;2022-12-07T07:59:02;95971.19;;;1.36;100.00
53916;BME280;39827;49.652;18.770;2022-12-07T08:01:27;95967.19;;;1.33;100.00
53916;BME280;39827;49.652;18.770;2022-12-07T08:03:52;95972.13;;;1.16;100.00
53916;BME280;39827;49.652;18.770;2022-12-07T08:06:18;95974.50;;;1.17;100.00
53916;BME280;39827;49.652;18.770;2022-12-07T08:08:43;95974.50;;;1.17;100.00
53916;BME280;39827;49.652;18.770;2022-12-07T08:11:09;95970.09;;;1.18;100.00
53916;BME280;39827;49.652;18.770;2022-12-07T08:13:35;95971.50;;;1.21;100.00
53916;BME280;39827;49.652;18.770;2022-12-07T08:16:08;95973.72;;;1.49;100.00
53916;BME280;39827;49.652;18.770;2022-12-07T08:18:38;95967.31;;;1.45;100.00
53916;BME280;39827;49.652;18.770;2022-12-07T08:21:06;95970.69;;;1.52;100.00
53916;BME280;39827;49.652;18.770;2022-12-07T08:23:32;95974.69;;;1.55;100.00
53916;BME280;39827;49.652;18.770;2022-12-07T08:26:03;95975.03;;;1.59;100.00
53916;BME280;39827;49.652;18.770;2022-12-07T08:28:29;95976.06;;;1.58;100.00
53916;BME280;39827;49.652;18.770;2022-12-07T08:30:59;95982.81;;;1.65;100.00
53916;BME280;39827;49.652;18.770;2022-12-07T08:33:25;95989.00;;;1.71;100.00
53916;BME280;39827;49.652;18.770;2022-12-07T08:35:51;95990.84;;;1.71;100.00
53916;BME280;39827;49.652;18.770;2022-12-07T08:38:16;95986.44;;;1.64;100.00
53916;BME280;39827;49.652;18.770;2022-12-07T08:40:42;95994.22;;;1.71;100.00
53916;BME280;39827;49.652;18.770;2022-12-07T08:43:07;95999.13;;;1.61;100.00
53916;BME280;39827;49.652;18.770;2022-12-07T08:45:32;95996.06;;;1.71;100.00
53916;BME280;39827;49.652;18.770;2022-12-07T08:48:06;95989.41;;;1.68;100.00
53916;BME280;39827;49.652;18.770;2022-12-07T08:50:34;95996.09;;;1.64;100.00
53916;BME280;39827;49.652;18.770;2022-12-07T08:53:02;95990.13;;;1.56;100.00
53916;BME280;39827;49.652;18.770;2022-12-07T08:55:28;95999.28;;;1.66;100.00
53916;BME280;39827;49.652;18.770;2022-12-07T08:57:54;95995.91;;;1.59;100.00
53916;BME280;39827;49.652;18.770;2022-12-07T09:00:20;95998.66;;;1.71;100.00
53916;BME280;39827;49.652;18.770;2022-12-07T09:02:46;96001.44;;;1.76;100.00
53916;BME280;39827;49.652;18.770;2022-12-07T09:05:12;95998.44;;;1.72;100.00
53916;BME280;39827;49.652;18.770;2022-12-07T09:07:40;95995.13;;;1.84;100.00
53916;BME280;39827;49.652;18.770;2022-12-07T09:10:07;95995.69;;;1.92;100.00
53916;BME280;39827;49.652;18.770;2022-12-07T09:12:32;95994.13;;;1.85;100.00
53916;BME280;39827;49.652;18.770;2022-12-07T09:14:58;95991.09;;;1.88;100.00
53916;BME280;39827;49.652;18.770;2022-12-07T09:17:25;95989.59;;;1.99;100.00
53916;BME280;39827;49.652;18.770;2022-12-07T09:19:50;95983.69;;;1.85;100.00
53916;BME280;39827;49.652;18.770;2022-12-07T09:22:16;95995.81;;;1.72;100.00
53916;BME280;39827;49.652;18.770;2022-12-07T09:24:41;95985.63;;;1.71;100.00
53916;BME280;39827;49.652;18.770;2022-12-07T09:27:06;95986.75;;;2.00;100.00
53916;BME280;39827;49.652;18.770;2022-12-07T09:29:32;95979.47;;;1.84;100.00
53916;BME280;39827;49.652;18.770;2022-12-07T09:31:57;95976.09;;;1.76;100.00
53916;BME280;39827;49.652;18.770;2022-12-07T09:34:22;95979.88;;;1.80;100.00
53916;BME280;39827;49.652;18.770;2022-12-07T09:36:48;95980.28;;;1.84;100.00
53916;BME280;39827;49.652;18.770;2022-12-07T09:39:13;95979.56;;;1.95;100.00
53916;BME280;39827;49.652;18.770;2022-12-07T09:41:40;95983.06;;;2.08;100.00
53916;BME280;39827;49.652;18.770;2022-12-07T09:44:15;95967.75;;;1.93;100.00
53916;BME280;39827;49.652;18.770;2022-12-07T09:46:44;95978.56;;;1.97;100.00
53916;BME280;39827;49.652;18.770;2022-12-07T09:49:18;95972.41;;;2.10;100.00
53916;BME280;39827;49.652;18.770;2022-12-07T09:51:45;95974.94;;;1.98;100.00
53916;BME280;39827;49.652;18.770;2022-12-07T09:54:15;95976.91;;;2.02;100.00
53916;BME280;39827;49.652;18.770;2022-12-07T09:56:43;95972.28;;;2.04;100.00
53916;BME280;39827;49.652;18.770;2022-12-07T09:59:14;95969.44;;;2.06;100.00
53916;BME280;39827;49.652;18.770;2022-12-07T10:01:42;95963.97;;;1.89;99.59
53916;BME280;39827;49.652;18.770;2022-12-07T10:06:39;95955.22;;;2.02;100.00
53916;BME280;39827;49.652;18.770;2022-12-07T10:09:30;95952.97;;;2.24;100.00
53916;BME280;39827;49.652;18.770;2022-12-07T10:14:34;95954.44;;;2.39;100.00
53916;BME280;39827;49.652;18.770;2022-12-07T10:17:00;95941.28;;;2.27;100.00
53916;BME280;39827;49.652;18.770;2022-12-07T10:19:30;95943.69;;;2.28;100.00
53916;BME280;39827;49.652;18.770;2022-12-07T10:24:29;95932.63;;;2.64;100.00
53916;BME280;39827;49.652;18.770;2022-12-07T10:26:55;95941.31;;;2.45;100.00
53916;BME280;39827;49.652;18.770;2022-12-07T10:29:31;95933.94;;;2.54;100.00
53916;BME280;39827;49.652;18.770;2022-12-07T10:34:41;95917.03;;;2.57;100.00
53916;BME280;39827;49.652;18.770;2022-12-07T10:37:18;95911.69;;;2.33;100.00
53916;BME280;39827;49.652;18.770;2022-12-07T10:39:53;95908.41;;;2.56;98.72
53916;BME280;39827;49.652;18.770;2022-12-07T10:42:20;95910.84;;;2.70;94.72
53916;BME280;39827;49.652;18.770;2022-12-07T10:44:46;95904.84;;;3.12;90.83
53916;BME280;39827;49.652;18.770;2022-12-07T10:55:25;95892.19;;;2.97;92.53
53916;BME280;39827;49.652;18.770;2022-12-07T11:00:46;95879.19;;;3.21;100.00
53916;BME280;39827;49.652;18.770;2022-12-07T11:06:16;95877.75;;;3.06;100.00
53916;BME280;39827;49.652;18.770;2022-12-07T11:14:37;95880.22;;;2.89;100.00
53916;BME280;39827;49.652;18.770;2022-12-07T11:17:28;95888.03;;;2.77;100.00
53916;BME280;39827;49.652;18.770;2022-12-07T11:20:29;95890.19;;;2.80;100.00
53916;BME280;39827;49.652;18.770;2022-12-07T11:25:40;95891.41;;;2.66;100.00
53916;BME280;39827;49.652;18.770;2022-12-07T11:31:05;95900.28;;;2.46;100.00
53916;BME280;39827;49.652;18.770;2022-12-07T11:33:37;95893.50;;;2.07;98.83
53916;BME280;39827;49.652;18.770;2022-12-07T11:38:45;95899.72;;;1.88;95.90
53916;BME280;39827;49.652;18.770;2022-12-07T11:41:20;95891.09;;;2.06;98.65
53916;BME280;39827;49.652;18.770;2022-12-07T11:43:54;95900.75;;;2.05;95.62
53916;BME280;39827;49.652;18.770;2022-12-07T11:46:25;95895.97;;;2.21;98.48
53916;BME280;39827;49.652;18.770;2022-12-07T11:49:07;95894.59;;;2.18;99.99
53916;BME280;39827;49.652;18.770;2022-12-07T11:51:37;95882.00;;;2.46;100.00
53916;BME280;39827;49.652;18.770;2022-12-07T11:54:15;95875.22;;;2.57;100.00
53916;BME280;39827;49.652;18.770;2022-12-07T11:56:43;95884.38;;;2.66;100.00
53916;BME280;39827;49.652;18.770;2022-12-07T11:59:12;95876.47;;;2.54;100.00
53916;BME280;39827;49.652;18.770;2022-12-07T12:01:55;95868.53;;;2.61;97.13
53916;BME280;39827;49.652;18.770;2022-12-07T12:04:30;95881.44;;;2.44;89.85
53916;BME280;39827;49.652;18.770;2022-12-07T12:06:57;95871.78;;;2.26;92.73
53916;BME280;39827;49.652;18.770;2022-12-07T12:09:34;95876.22;;;2.25;86.12
53916;BME280;39827;49.652;18.770;2022-12-07T12:22:47;95875.38;;;2.43;82.99
53916;BME280;39827;49.652;18.770;2022-12-07T12:25:21;95875.91;;;2.52;95.35
53916;BME280;39827;49.652;18.770;2022-12-07T12:27:49;95883.75;;;2.52;86.64
53916;BME280;39827;49.652;18.770;2022-12-07T12:30:34;95879.66;;;2.56;84.17
53916;BME280;39827;49.652;18.770;2022-12-07T12:33:13;95874.63;;;2.43;83.10
53916;BME280;39827;49.652;18.770;2022-12-07T12:35:41;95874.66;;;2.55;96.13
53916;BME280;39827;49.652;18.770;2022-12-07T12:40:50;95869.88;;;2.82;82.28
53916;BME280;39827;49.652;18.770;2022-12-07T12:43:41;95879.13;;;2.97;81.48
53916;BME280;39827;49.652;18.770;2022-12-07T12:49:38;95881.91;;;2.83;85.44
53916;BME280;39827;49.652;18.770;2022-12-07T12:57:34;95886.00;;;2.79;90.54
53916;BME280;39827;49.652;18.770;2022-12-07T13:00:15;95887.69;;;2.73;83.51
53916;BME280;39827;49.652;18.770;2022-12-07T13:02:58;95884.53;;;2.83;82.12
53916;BME280;39827;49.652;18.770;2022-12-07T13:05:29;95871.25;;;2.85;88.42
53916;BME280;39827;49.652;18.770;2022-12-07T13:08:05;95882.81;;;2.77;93.06
53916;BME280;39827;49.652;18.770;2022-12-07T13:10:39;95890.25;;;2.62;87.98
53916;BME280;39827;49.652;18.770;2022-12-07T13:15:46;95891.63;;;2.64;88.30
53916;BME280;39827;49.652;18.770;2022-12-07T13:23:20;95888.91;;;2.71;89.10
53916;BME280;39827;49.652;18.770;2022-12-07T13:25:54;95884.31;;;2.54;91.76
53916;BME280;39827;49.652;18.770;2022-12-07T13:28:22;95890.69;;;2.58;89.53
53916;BME280;39827;49.652;18.770;2022-12-07T13:31:02;95881.84;;;2.41;87.28
53916;BME280;39827;49.652;18.770;2022-12-07T13:33:29;95886.00;;;2.30;87.02
53916;BME280;39827;49.652;18.770;2022-12-07T13:35:55;95879.97;;;2.48;87.92
53916;BME280;39827;49.652;18.770;2022-12-07T13:38:33;95876.91;;;2.51;94.80
53916;BME280;39827;49.652;18.770;2022-12-07T13:41:16;95888.50;;;2.55;91.64
53916;BME280;39827;49.652;18.770;2022-12-07T13:44:28;95893.97;;;2.35;95.72
53916;BME280;39827;49.652;18.770;2022-12-07T13:46:51;95894.19;;;2.33;95.83
53916;BME280;39827;49.652;18.770;2022-12-07T13:49:23;95901.97;;;2.40;100.00
53916;BME280;39827;49.652;18.770;2022-12-07T13:51:49;95899.94;;;2.42;100.00
53916;BME280;39827;49.652;18.770;2022-12-07T13:54:15;95904.94;;;2.06;95.82
53916;BME280;39827;49.652;18.770;2022-12-07T13:56:41;95905.16;;;2.42;97.36
53916;BME280;39827;49.652;18.770;2022-12-07T13:59:18;95902.34;;;2.25;98.30
53916;BME280;39827;49.652;18.770;2022-12-07T14:01:45;95911.28;;;2.36;91.83
53916;BME280;39827;49.652;18.770;2022-12-07T14:04:35;95909.31;;;2.31;97.07
53916;BME280;39827;49.652;18.770;2022-12-07T14:07:18;95900.31;;;2.08;100.00
53916;BME280;39827;49.652;18.770;2022-12-07T14:10:39;95902.34;;;2.06;100.00
53916;BME280;39827;49.652;18.770;2022-12-07T14:12:38;95903.84;;;1.95;100.00
53916;BME280;39827;49.652;18.770;2022-12-07T14:15:04;95898.19;;;1.80;100.00
53916;BME280;39827;49.652;18.770;2022-12-07T14:17:31;95898.41;;;1.97;100.00
53916;BME280;39827;49.652;18.770;2022-12-07T14:19:58;95893.94;;;1.86;100.00
53916;BME280;39827;49.652;18.770;2022-12-07T14:22:34;95907.94;;;1.66;100.00
53916;BME280;39827;49.652;18.770;2022-12-07T14:27:38;95910.31;;;1.93;100.00
53916;BME280;39827;49.652;18.770;2022-12-07T14:30:04;95904.72;;;1.89;100.00
53916;BME280;39827;49.652;18.770;2022-12-07T14:32:31;95910.16;;;2.06;100.00
53916;BME280;39827;49.652;18.770;2022-12-07T14:35:03;95908.13;;;1.90;100.00
53916;BME280;39827;49.652;18.770;2022-12-07T14:37:30;95909.88;;;1.96;100.00
53916;BME280;39827;49.652;18.770;2022-12-07T14:39:56;95906.97;;;1.86;98.58
53916;BME280;39827;49.652;18.770;2022-12-07T14:42:23;95914.16;;;2.09;91.82
53916;BME280;39827;49.652;18.770;2022-12-07T14:44:50;95904.59;;;1.84;100.00
53916;BME280;39827;49.652;18.770;2022-12-07T14:47:15;95919.97;;;1.67;98.40